sensor_id;sensor_type;location;lat;lon;timestamp;pressure;altitude;pressure_sealevel;temperature;humidity
70248;BME280;57641;51.416;5.506;2022-12-29T00:00:05;100233.69;;;14.13;71.48
70248;BME280;57641;51.416;5.506;2022-12-29T00:02:31;100235.28;;;14.08;71.63
70248;BME280;57641;51.416;5.506;2022-12-29T00:04:57;100229.59;;;14.17;71.69
70248;BME280;57641;51.416;5.506;2022-12-29T00:07:22;100235.63;;;14.41;70.82
70248;BME280;57641;51.416;5.506;2022-12-29T00:09:47;100249.13;;;14.47;70.93
70248;BME280;57641;51.416;5.506;2022-12-29T00:12:13;100233.88;;;14.54;70.35
70248;BME280;57641;51.416;5.506;2022-12-29T00:14:38;100225.91;;;14.61;69.70
70248;BME280;57641;51.416;5.506;2022-12-29T00:17:22;100219.50;;;14.62;69.70
70248;BME280;57641;51.416;5.506;2022-12-29T00:19:48;100216.81;;;14.62;69.67
70248;BME280;57641;51.416;5.506;2022-12-29T00:22:32;100205.44;;;14.60;70.26
70248;BME280;57641;51.416;5.506;2022-12-29T00:25:18;100208.94;;;14.54;70.14
70248;BME280;57641;51.416;5.506;2022-12-29T00:28:02;100205.13;;;14.42;70.88
70248;BME280;57641;51.416;5.506;2022-12-29T00:30:46;100197.06;;;14.42;70.84
70248;BME280;57641;51.416;5.506;2022-12-29T00:33:32;100186.19;;;14.50;70.27
70248;BME280;57641;51.416;5.506;2022-12-29T00:39:01;100185.44;;;14.13;70.14
70248;BME280;57641;51.416;5.506;2022-12-29T00:41:47;100180.91;;;14.14;71.30
70248;BME280;57641;51.416;5.506;2022-12-29T00:44:31;100186.09;;;13.94;72.21
70248;BME280;57641;51.416;5.506;2022-12-29T00:46:56;100170.84;;;14.16;71.92
70248;BME280;57641;51.416;5.506;2022-12-29T00:49:22;100176.22;;;14.22;71.56
70248;BME280;57641;51.416;5.506;2022-12-29T00:52:00;100183.00;;;14.18;71.89
70248;BME280;57641;51.416;5.506;2022-12-29T00:54:28;100177.03;;;14.16;71.60
70248;BME280;57641;51.416;5.506;2022-12-29T00:56:54;100166.31;;;14.16;71.65
70248;BME280;57641;51.416;5.506;2022-12-29T00:59:20;100169.81;;;14.17;70.81
70248;BME280;57641;51.416;5.506;2022-12-29T01:01:46;100169.25;;;14.28;71.37
70248;BME280;57641;51.416;5.506;2022-12-29T01:04:13;100166.16;;;14.03;71.48
70248;BME280;57641;51.416;5.506;2022-12-29T01:06:39;100158.03;;;14.39;70.86
70248;BME280;57641;51.416;5.506;2022-12-29T01:09:06;100156.50;;;14.30;69.98
70248;BME280;57641;51.416;5.506;2022-12-29T01:11:50;100144.88;;;14.44;70.52
70248;BME280;57641;51.416;5.506;2022-12-29T01:14:17;100139.97;;;14.48;69.46
70248;BME280;57641;51.416;5.506;2022-12-29T01:16:44;100135.84;;;14.03;69.94
70248;BME280;57641;51.416;5.506;2022-12-29T01:19:10;100147.13;;;14.19;69.95
70248;BME280;57641;51.416;5.506;2022-12-29T01:21:36;100157.22;;;14.17;69.81
70248;BME280;57641;51.416;5.506;2022-12-29T01:24:01;100146.94;;;14.42;69.03
70248;BME280;57641;51.416;5.506;2022-12-29T01:26:27;100151.19;;;14.58;67.99
70248;BME280;57641;51.416;5.506;2022-12-29T01:28:55;100141.97;;;14.18;68.66
70248;BME280;57641;51.416;5.506;2022-12-29T01:31:21;100144.78;;;14.10;68.25
70248;BME280;57641;51.416;5.506;2022-12-29T01:33:46;100138.44;;;14.38;67.58
70248;BME280;57641;51.416;5.506;2022-12-29T01:36:15;100140.66;;;14.35;67.75
70248;BME280;57641;51.416;5.506;2022-12-29T01:38:41;100144.75;;;14.31;67.58
70248;BME280;57641;51.416;5.506;2022-12-29T01:41:08;100140.22;;;14.53;66.72
70248;BME280;57641;51.416;5.506;2022-12-29T01:43:43;100137.91;;;14.50;66.30
70248;BME280;57641;51.416;5.506;2022-12-29T01:49:15;100139.09;;;14.41;66.23
70248;BME280;57641;51.416;5.506;2022-12-29T01:51:50;100126.50;;;14.41;66.37
70248;BME280;57641;51.416;5.506;2022-12-29T01:54:53;100123.47;;;14.51;66.04
70248;BME280;57641;51.416;5.506;2022-12-29T01:57:28;100137.50;;;14.25;66.03
70248;BME280;57641;51.416;5.506;2022-12-29T01:59:59;100133.63;;;14.34;65.63
70248;BME280;57641;51.416;5.506;2022-12-29T02:02:27;100137.41;;;14.40;65.42
70248;BME280;57641;51.416;5.506;2022-12-29T02:04:57;100137.19;;;14.62;65.24
70248;BME280;57641;51.416;5.506;2022-12-29T02:07:25;100152.75;;;14.46;64.82
70248;BME280;57641;51.416;5.506;2022-12-29T02:09:54;100138.25;;;14.40;65.06
70248;BME280;57641;51.416;5.506;2022-12-29T02:12:21;100131.50;;;14.02;65.76
70248;BME280;57641;51.416;5.506;2022-12-29T02:14:50;100153.13;;;14.43;64.75
70248;BME280;57641;51.416;5.506;2022-12-29T02:17:34;100147.31;;;14.18;65.14
70248;BME280;57641;51.416;5.506;2022-12-29T02:31:17;100139.25;;;14.67;65.02
70248;BME280;57641;51.416;5.506;2022-12-29T02:36:54;100132.78;;;14.55;64.48
70248;BME280;57641;51.416;5.506;2022-12-29T02:39:39;100125.69;;;14.41;65.18
70248;BME280;57641;51.416;5.506;2022-12-29T02:42:23;100127.00;;;14.51;65.21
70248;BME280;57641;51.416;5.506;2022-12-29T02:45:03;100122.22;;;14.47;65.14
70248;BME280;57641;51.416;5.506;2022-12-29T02:50:05;100110.72;;;14.59;64.65
70248;BME280;57641;51.416;5.506;2022-12-29T02:52:50;100119.13;;;14.50;64.61
70248;BME280;57641;51.416;5.506;2022-12-29T02:55:17;100112.56;;;14.52;64.46
70248;BME280;57641;51.416;5.506;2022-12-29T02:57:42;100119.22;;;14.63;64.64
70248;BME280;57641;51.416;5.506;2022-12-29T03:00:10;100098.31;;;14.52;65.19
70248;BME280;57641;51.416;5.506;2022-12-29T03:03:16;100101.34;;;14.42;65.32
70248;BME280;57641;51.416;5.506;2022-12-29T03:08:57;100096.19;;;14.41;64.84
70248;BME280;57641;51.416;5.506;2022-12-29T03:11:33;100094.25;;;14.34;64.61
70248;BME280;57641;51.416;5.506;2022-12-29T03:15:00;100093.31;;;14.42;65.64
70248;BME280;57641;51.416;5.506;2022-12-29T03:17:48;100107.72;;;14.41;66.10
70248;BME280;57641;51.416;5.506;2022-12-29T03:20:24;100088.53;;;14.38;66.40
70248;BME280;57641;51.416;5.506;2022-12-29T03:22:55;100091.38;;;14.36;66.10
70248;BME280;57641;51.416;5.506;2022-12-29T03:25:29;100086.06;;;14.15;66.14
70248;BME280;57641;51.416;5.506;2022-12-29T03:28:01;100097.94;;;14.33;66.54
70248;BME280;57641;51.416;5.506;2022-12-29T03:30:29;100094.75;;;14.17;66.79
70248;BME280;57641;51.416;5.506;2022-12-29T03:33:00;100084.06;;;14.23;67.47
70248;BME280;57641;51.416;5.506;2022-12-29T03:35:30;100084.28;;;14.22;66.31
70248;BME280;57641;51.416;5.506;2022-12-29T03:40:52;100097.19;;;14.40;65.77
70248;BME280;57641;51.416;5.506;2022-12-29T03:43:19;100101.81;;;14.24;66.13
70248;BME280;57641;51.416;5.506;2022-12-29T03:45:45;100103.47;;;14.25;66.09
70248;BME280;57641;51.416;5.506;2022-12-29T03:48:10;100083.72;;;14.05;66.35
70248;BME280;57641;51.416;5.506;2022-12-29T03:50:36;100087.41;;;14.04;66.37
70248;BME280;57641;51.416;5.506;2022-12-29T03:53:01;100084.16;;;14.09;65.59
70248;BME280;57641;51.416;5.506;2022-12-29T03:55:27;100091.78;;;14.12;65.70
70248;BME280;57641;51.416;5.506;2022-12-29T03:57:52;100099.06;;;14.18;65.62
70248;BME280;57641;51.416;5.506;2022-12-29T04:00:18;100109.53;;;14.13;65.40
70248;BME280;57641;51.416;5.506;2022-12-29T04:02:43;100114.78;;;14.21;64.88
70248;BME280;57641;51.416;5.506;2022-12-29T04:05:09;100119.31;;;14.20;64.59
70248;BME280;57641;51.416;5.506;2022-12-29T04:07:34;100130.56;;;13.88;66.22
70248;BME280;57641;51.416;5.506;2022-12-29T04:10:00;100127.56;;;13.98;65.72
70248;BME280;57641;51.416;5.506;2022-12-29T04:12:25;100111.13;;;13.79;66.50
70248;BME280;57641;51.416;5.506;2022-12-29T04:14:50;100110.09;;;13.80;66.75
70248;BME280;57641;51.416;5.506;2022-12-29T04:17:16;100122.34;;;13.68;66.94
70248;BME280;57641;51.416;5.506;2022-12-29T04:19:41;100128.81;;;13.74;66.08
70248;BME280;57641;51.416;5.506;2022-12-29T04:22:07;100127.25;;;13.86;66.00
70248;BME280;57641;51.416;5.506;2022-12-29T04:24:32;100126.47;;;13.71;66.71
70248;BME280;57641;51.416;5.506;2022-12-29T04:26:58;100128.53;;;13.69;65.08
70248;BME280;57641;51.416;5.506;2022-12-29T04:29:23;100138.94;;;13.57;65.29
70248;BME280;57641;51.416;5.506;2022-12-29T04:31:49;100140.50;;;13.16;66.01
70248;BME280;57641;51.416;5.506;2022-12-29T04:34:14;100121.19;;;13.56;65.01
70248;BME280;57641;51.416;5.506;2022-12-29T04:36:40;100131.47;;;13.38;64.53
70248;BME280;57641;51.416;5.506;2022-12-29T04:39:06;100137.41;;;13.33;63.93
70248;BME280;57641;51.416;5.506;2022-12-29T04:41:32;100138.16;;;13.27;64.00
70248;BME280;57641;51.416;5.506;2022-12-29T04:43:57;100141.09;;;13.47;63.44
70248;BME280;57641;51.416;5.506;2022-12-29T04:46:23;100137.97;;;13.29;63.53
70248;BME280;57641;51.416;5.506;2022-12-29T04:48:48;100148.06;;;13.63;63.47
70248;BME280;57641;51.416;5.506;2022-12-29T04:51:14;100158.84;;;13.69;62.58
70248;BME280;57641;51.416;5.506;2022-12-29T04:53:39;100149.94;;;13.47;62.44
70248;BME280;57641;51.416;5.506;2022-12-29T04:56:05;100159.00;;;13.46;62.80
70248;BME280;57641;51.416;5.506;2022-12-29T04:58:31;100160.78;;;13.25;64.17
70248;BME280;57641;51.416;5.506;2022-12-29T05:00:56;100164.00;;;13.35;63.74
70248;BME280;57641;51.416;5.506;2022-12-29T05:03:22;100174.00;;;13.26;63.75
70248;BME280;57641;51.416;5.506;2022-12-29T05:05:47;100179.84;;;13.51;63.97
70248;BME280;57641;51.416;5.506;2022-12-29T05:08:13;100164.22;;;13.54;63.55
70248;BME280;57641;51.416;5.506;2022-12-29T05:10:38;100173.88;;;13.34;64.47
70248;BME280;57641;51.416;5.506;2022-12-29T05:13:03;100185.19;;;13.15;64.82
70248;BME280;57641;51.416;5.506;2022-12-29T05:15:29;100194.72;;;13.39;64.94
70248;BME280;57641;51.416;5.506;2022-12-29T05:17:54;100193.16;;;13.44;65.11
70248;BME280;57641;51.416;5.506;2022-12-29T05:20:20;100199.38;;;13.30;64.92
70248;BME280;57641;51.416;5.506;2022-12-29T05:22:45;100198.06;;;13.41;65.22
70248;BME280;57641;51.416;5.506;2022-12-29T05:25:11;100191.28;;;13.60;64.42
70248;BME280;57641;51.416;5.506;2022-12-29T05:27:36;100197.59;;;13.52;64.14
70248;BME280;57641;51.416;5.506;2022-12-29T05:30:02;100194.50;;;13.55;63.87
70248;BME280;57641;51.416;5.506;2022-12-29T05:32:28;100192.00;;;13.53;64.35
70248;BME280;57641;51.416;5.506;2022-12-29T05:34:53;100187.31;;;13.56;63.28
70248;BME280;57641;51.416;5.506;2022-12-29T05:37:19;100195.34;;;13.56;63.33
70248;BME280;57641;51.416;5.506;2022-12-29T05:39:44;100192.84;;;13.54;63.35
70248;BME280;57641;51.416;5.506;2022-12-29T05:42:10;100204.00;;;13.72;62.60
70248;BME280;57641;51.416;5.506;2022-12-29T05:44:37;100207.03;;;13.48;63.40
70248;BME280;57641;51.416;5.506;2022-12-29T05:47:02;100227.50;;;13.56;62.80
70248;BME280;57641;51.416;5.506;2022-12-29T05:49:28;100221.03;;;13.50;63.38
70248;BME280;57641;51.416;5.506;2022-12-29T05:51:53;100228.28;;;13.71;62.12
70248;BME280;57641;51.416;5.506;2022-12-29T05:54:19;100223.75;;;13.71;62.47
70248;BME280;57641;51.416;5.506;2022-12-29T05:56:44;100225.66;;;13.41;63.63
70248;BME280;57641;51.416;5.506;2022-12-29T05:59:10;100234.06;;;13.53;63.10
70248;BME280;57641;51.416;5.506;2022-12-29T06:01:35;100230.97;;;13.71;62.55
70248;BME280;57641;51.416;5.506;2022-12-29T06:04:01;100230.38;;;13.75;62.21
70248;BME280;57641;51.416;5.506;2022-12-29T06:06:26;100231.50;;;13.81;61.76
70248;BME280;57641;51.416;5.506;2022-12-29T06:08:52;100225.97;;;14.04;60.63
70248;BME280;57641;51.416;5.506;2022-12-29T06:11:17;100212.88;;;13.94;60.22
70248;BME280;57641;51.416;5.506;2022-12-29T06:13:42;100223.09;;;13.84;60.42
70248;BME280;57641;51.416;5.506;2022-12-29T06:16:08;100221.66;;;13.67;59.56
70248;BME280;57641;51.416;5.506;2022-12-29T06:18:34;100229.16;;;13.92;59.60
70248;BME280;57641;51.416;5.506;2022-12-29T06:21:01;100229.13;;;13.71;60.45
70248;BME280;57641;51.416;5.506;2022-12-29T06:23:27;100232.38;;;13.67;59.91
70248;BME280;57641;51.416;5.506;2022-12-29T06:25:52;100225.00;;;13.90;59.79
70248;BME280;57641;51.416;5.506;2022-12-29T06:28:18;100229.19;;;13.78;60.02
70248;BME280;57641;51.416;5.506;2022-12-29T06:30:46;100230.81;;;13.93;59.56
70248;BME280;57641;51.416;5.506;2022-12-29T06:33:13;100235.19;;;14.01;59.17
70248;BME280;57641;51.416;5.506;2022-12-29T06:35:38;100235.00;;;13.81;59.65
70248;BME280;57641;51.416;5.506;2022-12-29T06:38:04;100229.47;;;14.04;59.86
70248;BME280;57641;51.416;5.506;2022-12-29T06:40:31;100225.91;;;14.18;59.22
70248;BME280;57641;51.416;5.506;2022-12-29T06:42:56;100228.22;;;14.21;58.64
70248;BME280;57641;51.416;5.506;2022-12-29T06:45:22;100224.31;;;14.03;59.30
70248;BME280;57641;51.416;5.506;2022-12-29T06:47:47;100224.44;;;14.16;58.42
70248;BME280;57641;51.416;5.506;2022-12-29T06:50:13;100221.13;;;14.14;57.93
70248;BME280;57641;51.416;5.506;2022-12-29T06:52:38;100232.09;;;14.19;57.96
70248;BME280;57641;51.416;5.506;2022-12-29T06:55:04;100219.84;;;14.10;58.05
70248;BME280;57641;51.416;5.506;2022-12-29T06:57:30;100224.78;;;14.06;58.14
70248;BME280;57641;51.416;5.506;2022-12-29T06:59:55;100225.03;;;14.32;57.85
70248;BME280;57641;51.416;5.506;2022-12-29T07:02:21;100215.25;;;14.25;55.80
70248;BME280;57641;51.416;5.506;2022-12-29T07:04:47;100231.34;;;13.68;58.10
70248;BME280;57641;51.416;5.506;2022-12-29T07:07:12;100221.88;;;13.86;57.45
70248;BME280;57641;51.416;5.506;2022-12-29T07:09:37;100223.28;;;13.82;57.05
70248;BME280;57641;51.416;5.506;2022-12-29T07:12:03;100240.00;;;13.84;56.97
70248;BME280;57641;51.416;5.506;2022-12-29T07:14:29;100234.81;;;13.83;56.64
70248;BME280;57641;51.416;5.506;2022-12-29T07:16:54;100242.88;;;14.04;55.79
70248;BME280;57641;51.416;5.506;2022-12-29T07:19:20;100258.66;;;13.78;56.87
70248;BME280;57641;51.416;5.506;2022-12-29T07:21:45;100241.72;;;13.92;55.66
70248;BME280;57641;51.416;5.506;2022-12-29T07:24:11;100261.69;;;13.89;55.94
70248;BME280;57641;51.416;5.506;2022-12-29T07:26:36;100240.00;;;13.84;55.80
70248;BME280;57641;51.416;5.506;2022-12-29T07:29:03;100295.91;;;13.73;54.41
70248;BME280;57641;51.416;5.506;2022-12-29T07:31:30;100274.44;;;13.87;54.02
70248;BME280;57641;51.416;5.506;2022-12-29T07:33:55;100271.50;;;13.82;54.55
70248;BME280;57641;51.416;5.506;2022-12-29T07:36:21;100266.97;;;13.83;54.71
70248;BME280;57641;51.416;5.506;2022-12-29T07:38:47;100273.69;;;13.93;55.50
70248;BME280;57641;51.416;5.506;2022-12-29T07:41:12;100272.78;;;13.86;55.45
70248;BME280;57641;51.416;5.506;2022-12-29T07:43:37;100266.34;;;14.02;55.06
70248;BME280;57641;51.416;5.506;2022-12-29T07:46:03;100267.88;;;13.90;55.58
70248;BME280;57641;51.416;5.506;2022-12-29T07:48:28;100274.31;;;13.74;55.41
70248;BME280;57641;51.416;5.506;2022-12-29T07:50:54;100259.25;;;13.73;55.17
70248;BME280;57641;51.416;5.506;2022-12-29T07:53:19;100263.22;;;13.99;54.54
70248;BME280;57641;51.416;5.506;2022-12-29T07:55:45;100273.03;;;14.06;54.21
70248;BME280;57641;51.416;5.506;2022-12-29T07:58:11;100275.63;;;14.00;54.24
70248;BME280;57641;51.416;5.506;2022-12-29T08:00:38;100277.72;;;14.04;54.08
70248;BME280;57641;51.416;5.506;2022-12-29T08:03:04;100280.72;;;13.94;53.57
70248;BME280;57641;51.416;5.506;2022-12-29T08:05:31;100285.72;;;14.19;53.77
70248;BME280;57641;51.416;5.506;2022-12-29T08:07:57;100291.56;;;14.08;52.95
70248;BME280;57641;51.416;5.506;2022-12-29T08:10:23;100276.19;;;13.95;53.72
70248;BME280;57641;51.416;5.506;2022-12-29T08:12:48;100274.97;;;13.98;53.12
70248;BME280;57641;51.416;5.506;2022-12-29T08:15:14;100290.88;;;13.99;53.32
70248;BME280;57641;51.416;5.506;2022-12-29T08:17:40;100286.53;;;13.98;53.74
70248;BME280;57641;51.416;5.506;2022-12-29T08:20:05;100293.50;;;14.14;52.93
70248;BME280;57641;51.416;5.506;2022-12-29T08:22:31;100299.44;;;14.09;53.53
70248;BME280;57641;51.416;5.506;2022-12-29T08:24:56;100307.69;;;13.93;52.75
70248;BME280;57641;51.416;5.506;2022-12-29T08:27:22;100298.41;;;14.10;53.00
70248;BME280;57641;51.416;5.506;2022-12-29T08:29:48;100314.13;;;14.34;52.09
70248;BME280;57641;51.416;5.506;2022-12-29T08:32:13;100314.91;;;13.92;53.61
70248;BME280;57641;51.416;5.506;2022-12-29T08:34:42;100317.75;;;14.42;52.54
70248;BME280;57641;51.416;5.506;2022-12-29T08:37:08;100322.84;;;13.86;53.26
70248;BME280;57641;51.416;5.506;2022-12-29T08:39:33;100319.03;;;14.10;53.19
70248;BME280;57641;51.416;5.506;2022-12-29T08:41:59;100305.75;;;14.38;52.99
70248;BME280;57641;51.416;5.506;2022-12-29T08:44:24;100312.41;;;14.42;52.89
70248;BME280;57641;51.416;5.506;2022-12-29T08:46:50;100322.00;;;14.36;52.50
70248;BME280;57641;51.416;5.506;2022-12-29T08:49:15;100313.94;;;14.15;53.27
70248;BME280;57641;51.416;5.506;2022-12-29T08:51:41;100311.88;;;13.95;54.07
70248;BME280;57641;51.416;5.506;2022-12-29T08:54:06;100304.81;;;14.30;52.88
70248;BME280;57641;51.416;5.506;2022-12-29T08:56:32;100312.59;;;14.25;52.49
70248;BME280;57641;51.416;5.506;2022-12-29T08:58:57;100310.84;;;14.18;52.40
70248;BME280;57641;51.416;5.506;2022-12-29T09:01:23;100317.56;;;14.28;53.24
70248;BME280;57641;51.416;5.506;2022-12-29T09:03:49;100325.75;;;14.20;53.10
70248;BME280;57641;51.416;5.506;2022-12-29T09:06:16;100326.31;;;14.16;52.34
70248;BME280;57641;51.416;5.506;2022-12-29T09:08:42;100310.69;;;14.19;52.47
70248;BME280;57641;51.416;5.506;2022-12-29T09:11:10;100315.25;;;14.40;52.57
70248;BME280;57641;51.416;5.506;2022-12-29T09:13:36;100310.09;;;14.24;52.15
70248;BME280;57641;51.416;5.506;2022-12-29T09:16:02;100312.44;;;14.12;52.71
70248;BME280;57641;51.416;5.506;2022-12-29T09:18:28;100317.00;;;13.97;53.17
70248;BME280;57641;51.416;5.506;2022-12-29T09:21:01;100320.06;;;14.30;53.08
70248;BME280;57641;51.416;5.506;2022-12-29T09:23:27;100321.06;;;14.08;53.79
70248;BME280;57641;51.416;5.506;2022-12-29T09:25:53;100317.22;;;13.95;53.75
70248;BME280;57641;51.416;5.506;2022-12-29T09:28:20;100327.34;;;14.15;53.86
70248;BME280;57641;51.416;5.506;2022-12-29T09:30:45;100341.13;;;13.97;53.78
70248;BME280;57641;51.416;5.506;2022-12-29T09:33:11;100339.16;;;14.20;53.83
70248;BME280;57641;51.416;5.506;2022-12-29T09:35:36;100351.19;;;14.10;53.65
70248;BME280;57641;51.416;5.506;2022-12-29T09:38:02;100346.28;;;14.13;54.56
70248;BME280;57641;51.416;5.506;2022-12-29T09:40:32;100350.97;;;13.90;54.83
70248;BME280;57641;51.416;5.506;2022-12-29T09:45:44;100358.41;;;14.09;56.33
70248;BME280;57641;51.416;5.506;2022-12-29T09:48:21;100370.44;;;13.54;57.79
70248;BME280;57641;51.416;5.506;2022-12-29T09:50:55;100373.16;;;13.84;57.64
70248;BME280;57641;51.416;5.506;2022-12-29T09:53:29;100383.66;;;13.56;58.42
70248;BME280;57641;51.416;5.506;2022-12-29T09:55:58;100386.34;;;13.71;58.01
70248;BME280;57641;51.416;5.506;2022-12-29T10:06:19;100407.09;;;13.39;59.74
70248;BME280;57641;51.416;5.506;2022-12-29T10:12:06;100411.34;;;13.48;59.73
70248;BME280;57641;51.416;5.506;2022-12-29T10:17:37;100427.50;;;13.40;60.81
70248;BME280;57641;51.416;5.506;2022-12-29T10:25:26;100451.84;;;13.16;62.92
70248;BME280;57641;51.416;5.506;2022-12-29T10:27:55;100431.28;;;13.31;62.25
70248;BME280;57641;51.416;5.506;2022-12-29T10:30:21;100435.53;;;13.26;63.15
70248;BME280;57641;51.416;5.506;2022-12-29T10:32:58;100443.41;;;13.42;62.06
70248;BME280;57641;51.416;5.506;2022-12-29T10:35:33;100473.75;;;13.11;62.26
70248;BME280;57641;51.416;5.506;2022-12-29T10:41:11;100470.44;;;13.32;61.21
70248;BME280;57641;51.416;5.506;2022-12-29T10:43:51;100481.47;;;13.06;63.06
70248;BME280;57641;51.416;5.506;2022-12-29T10:46:26;100471.75;;;13.36;62.05
70248;BME280;57641;51.416;5.506;2022-12-29T10:48:53;100484.41;;;13.20;61.99
70248;BME280;57641;51.416;5.506;2022-12-29T10:51:35;100491.47;;;13.13;63.25
70248;BME280;57641;51.416;5.506;2022-12-29T10:54:19;100493.13;;;13.22;62.55
70248;BME280;57641;51.416;5.506;2022-12-29T10:56:52;100500.78;;;12.94;62.75
70248;BME280;57641;51.416;5.506;2022-12-29T10:59:31;100506.78;;;12.96;62.36
70248;BME280;57641;51.416;5.506;2022-12-29T11:04:45;100511.56;;;13.08;61.22
70248;BME280;57641;51.416;5.506;2022-12-29T11:07:16;100509.56;;;13.10;61.79
70248;BME280;57641;51.416;5.506;2022-12-29T11:09:44;100508.94;;;13.31;60.54
70248;BME280;57641;51.416;5.506;2022-12-29T11:12:22;100511.06;;;13.36;59.86
70248;BME280;57641;51.416;5.506;2022-12-29T11:17:49;100524.88;;;13.47;60.25
70248;BME280;57641;51.416;5.506;2022-12-29T11:20:38;100533.28;;;13.59;59.56
70248;BME280;57641;51.416;5.506;2022-12-29T11:23:33;100530.59;;;13.59;59.27
70248;BME280;57641;51.416;5.506;2022-12-29T11:28:45;100521.81;;;13.50;59.66
70248;BME280;57641;51.416;5.506;2022-12-29T11:31:16;100527.72;;;13.46;59.63
70248;BME280;57641;51.416;5.506;2022-12-29T11:33:41;100530.75;;;13.80;59.21
70248;BME280;57641;51.416;5.506;2022-12-29T11:36:17;100535.38;;;13.72;59.06
70248;BME280;57641;51.416;5.506;2022-12-29T11:38:51;100528.41;;;13.63;59.71
70248;BME280;57641;51.416;5.506;2022-12-29T11:41:30;100529.75;;;13.81;60.24
70248;BME280;57641;51.416;5.506;2022-12-29T11:44:02;100529.03;;;13.87;59.32
70248;BME280;57641;51.416;5.506;2022-12-29T11:46:34;100532.66;;;14.09;58.22
70248;BME280;57641;51.416;5.506;2022-12-29T11:49:03;100550.59;;;14.09;58.02
70248;BME280;57641;51.416;5.506;2022-12-29T11:51:38;100540.69;;;13.94;57.01
70248;BME280;57641;51.416;5.506;2022-12-29T11:54:19;100552.09;;;14.11;57.72
70248;BME280;57641;51.416;5.506;2022-12-29T11:56:46;100551.53;;;14.16;57.18
70248;BME280;57641;51.416;5.506;2022-12-29T12:05:57;100554.09;;;14.09;57.09
70248;BME280;57641;51.416;5.506;2022-12-29T12:11:18;100551.06;;;14.27;56.26
70248;BME280;57641;51.416;5.506;2022-12-29T12:14:06;100545.78;;;14.19;55.94
70248;BME280;57641;51.416;5.506;2022-12-29T12:16:42;100547.63;;;14.04;56.57
70248;BME280;57641;51.416;5.506;2022-12-29T12:22:29;100542.53;;;13.94;54.79
70248;BME280;57641;51.416;5.506;2022-12-29T12:25:12;100538.75;;;14.03;54.30
70248;BME280;57641;51.416;5.506;2022-12-29T12:27:51;100562.09;;;13.80;55.05
70248;BME280;57641;51.416;5.506;2022-12-29T12:30:21;100556.41;;;13.98;54.62
70248;BME280;57641;51.416;5.506;2022-12-29T12:32:52;100553.44;;;13.92;55.07
70248;BME280;57641;51.416;5.506;2022-12-29T12:38:19;100574.88;;;13.92;54.88
70248;BME280;57641;51.416;5.506;2022-12-29T12:43:41;100549.06;;;13.91;54.05
70248;BME280;57641;51.416;5.506;2022-12-29T12:58:03;100573.44;;;14.19;54.75
70248;BME280;57641;51.416;5.506;2022-12-29T13:01:10;100581.31;;;14.21;54.67
70248;BME280;57641;51.416;5.506;2022-12-29T13:04:08;100570.06;;;14.03;56.29
70248;BME280;57641;51.416;5.506;2022-12-29T13:06:50;100568.13;;;13.96;56.55
70248;BME280;57641;51.416;5.506;2022-12-29T13:23:15;100588.56;;;13.98;56.98
70248;BME280;57641;51.416;5.506;2022-12-29T13:25:53;100582.31;;;14.05;57.63
70248;BME280;57641;51.416;5.506;2022-12-29T13:28:37;100591.91;;;14.14;58.28
70248;BME280;57641;51.416;5.506;2022-12-29T13:36:41;100612.47;;;13.62;63.11
70248;BME280;57641;51.416;5.506;2022-12-29T13:41:56;100601.81;;;13.76;63.27
70248;BME280;57641;51.416;5.506;2022-12-29T13:44:24;100606.41;;;13.68;63.67
70248;BME280;57641;51.416;5.506;2022-12-29T13:46:51;100608.28;;;13.82;63.01
70248;BME280;57641;51.416;5.506;2022-12-29T13:49:21;100619.09;;;13.74;63.69
70248;BME280;57641;51.416;5.506;2022-12-29T13:51:56;100618.66;;;13.62;62.71
70248;BME280;57641;51.416;5.506;2022-12-29T14:00:06;100631.94;;;13.56;64.38
70248;BME280;57641;51.416;5.506;2022-12-29T14:07:43;100640.94;;;13.63;64.56
70248;BME280;57641;51.416;5.506;2022-12-29T14:13:14;100643.63;;;13.63;63.82
70248;BME280;57641;51.416;5.506;2022-12-29T14:18:29;100639.38;;;13.68;63.63
70248;BME280;57641;51.416;5.506;2022-12-29T14:20:59;100644.22;;;13.73;62.88
70248;BME280;57641;51.416;5.506;2022-12-29T14:23:38;100638.38;;;13.46;63.63
70248;BME280;57641;51.416;5.506;2022-12-29T14:28:34;100631.09;;;13.55;62.13
70248;BME280;57641;51.416;5.506;2022-12-29T14:31:05;100630.34;;;13.38;62.84
70248;BME280;57641;51.416;5.506;2022-12-29T14:39:01;100634.28;;;13.59;62.39
70248;BME280;57641;51.416;5.506;2022-12-29T14:43:57;100630.66;;;13.43;62.58
70248;BME280;57641;51.416;5.506;2022-12-29T14:46:24;100645.94;;;13.43;61.97
70248;BME280;57641;51.416;5.506;2022-12-29T14:48:55;100633.34;;;13.43;60.98
70248;BME280;57641;51.416;5.506;2022-12-29T14:51:33;100653.22;;;13.49;61.08
70248;BME280;57641;51.416;5.506;2022-12-29T14:54:00;100656.59;;;13.20;61.60
70248;BME280;57641;51.416;5.506;2022-12-29T14:56:45;100656.44;;;13.14;61.42
70248;BME280;57641;51.416;5.506;2022-12-29T14:59:11;100665.41;;;13.29;61.71
70248;BME280;57641;51.416;5.506;2022-12-29T15:01:50;100663.66;;;13.05;62.78
70248;BME280;57641;51.416;5.506;2022-12-29T15:04:26;100662.03;;;13.35;61.21
70248;BME280;57641;51.416;5.506;2022-12-29T15:06:52;100656.00;;;13.33;61.40
70248;BME280;57641;51.416;5.506;2022-12-29T15:09:30;100651.44;;;13.41;61.58
70248;BME280;57641;51.416;5.506;2022-12-29T15:14:55;100683.34;;;13.20;61.40
70248;BME280;57641;51.416;5.506;2022-12-29T15:17:30;100676.63;;;13.24;61.55
70248;BME280;57641;51.416;5.506;2022-12-29T15:19:58;100674.84;;;13.08;62.52
70248;BME280;57641;51.416;5.506;2022-12-29T15:22:26;100682.28;;;12.82;63.04
70248;BME280;57641;51.416;5.506;2022-12-29T15:24:53;100691.91;;;13.07;62.43
70248;BME280;57641;51.416;5.506;2022-12-29T15:27:22;100689.84;;;13.26;61.31